CheckWX is a tool to help pilots better visualize weather data.  It is not intended as a substitute for an official pre-flight weather briefing.

05:27:01 UTC

KTAN METAR
Taunton Municipal - King Field Airport
Taunton, Massachusetts, USA
Current

23 mins ago

KTAN 250504Z AUTO 00000KT 2 1/2SM BR OVC008 09/08 A3026 RMK AO2 CIG 005V010 T00940083
Observed
May-25 @ 05:04 UTC
Visibility
Flight Rules
IFR
Conditions
Mist
Cloud Levels
  • Overcast at 800' AGL
Temperature
C / 48°F
Dewpoint
C / 46°F
Humidity
94%
Altimeter
30.26" Hg
Pressure
1024.72 hPa
Previous

35 mins ago

KTAN 250452Z AUTO 00000KT 6SM BR OVC010 09/08 A3027 RMK AO2 RAB09E31 SLP250 P0000 T00940083 401780067
Observed
May-25 @ 04:52 UTC
Visibility
Flight Rules
MVFR
Conditions
Mist
Cloud Levels
  • Overcast at 1,000' AGL
Dewpoint
C / 46°F
Humidity
94%
Altimeter
30.27" Hg
Pressure
1025.02 hPa
Current Rain
0.01"
Previous

2 hours ago

KTAN 250352Z AUTO VRB03KT 5SM BR OVC011 09/07 A3028 RMK AO2 SLP253 T00940072
Observed
May-25 @ 03:52 UTC
Wind
  • Variable at 3 KTS
Visibility
Flight Rules
MVFR
Conditions
Mist
Cloud Levels
  • Overcast at 1,100' AGL
Temperature
C / 48°F
Dewpoint
C / 45°F
Humidity
87%
Altimeter
30.28" Hg
Pressure
1025.42 hPa